Home > Products > Valid Products > MTR

000
SAUS42 KCHS 161658
MTRNBC
METAR KNBC 161656Z VRB03KT 10SM BKN024TCU 32/22 A3001 RMK AO2 SLP161
TCU ALQDS T03170222 $





000
SAUS42 KCHS 161557
MTRNBC
METAR KNBC 161556Z 16005KT 10SM FEW020 BKN030 BKN085 29/23 A3003 RMK
AO2 SLP170 T02940233





000
SAUS42 KCHS 161519
MTRNBC
SPECI KNBC 161518Z 18005KT 10SM BKN020 BKN100 29/23 A3005 RMK AO2
T02890228





000
SAUS42 KCHS 161457
MTRNBC
METAR KNBC 161456Z 00000KT 10SM SCT016 SCT022 BKN100 28/23 A3005 RMK
AO2 SLP177 T02830233 58001





000
SAUS42 KCHS 161408
MTRNBC
METAR KNBC 161356Z COR 00000KT 10SM BKN012 BKN030 BKN120 27/23 A3006
RMK AO2 SLP179 T02720233





000
SAUS42 KCHS 161405
MTRNBC
METAR KNBC 161356Z COR 00000KT 10SM SCT012 BKN030 BKN100 27/23 A3006
RMK AO2 SLP179 T02720233





000
SAUS42 KCHS 161357
MTRNBC
METAR KNBC 161356Z 00000KT 10SM SCT012 SCT030 BKN100 27/23 A3006 RMK
AO2 SLP179 T02720233





000
SAUS42 KCHS 161258
MTRNBC
METAR KNBC 161256Z 23004KT 10SM OVC012 26/23 A3006 RMK AO2 SLP179
T02560233





000
SAUS42 KCHS 161231
MTRNBC
SPECI KNBC 161229Z 23003KT 10SM BKN014 26/23 A3006 RMK AO2 T02560228





000
SAUS42 KCHS 161157
MTRNBC
METAR KNBC 161156Z 00000KT 6SM BR FEW014 SCT120 BKN200 24/23 A3006
RMK AO2 SLP179 T02440228 10250 20233 55001





000
SAUS42 KCHS 161057
MTRNBC
METAR KNBC 161056Z 00000KT 6SM BR FEW030 SCT120 BKN200 24/22 A3005
RMK AO2 SLP176 T02390222





000
SAUS42 KCHS 161041
MTRNBC
SPECI KNBC 161040Z 00000KT 6SM BR FEW030 SCT120 24/22 A3005 RMK AO2
FIRST T02390222





000
SAUS42 KCHS 161014
MTRNBC
SPECI KNBC 161013Z AUTO 23003KT 10SM SCT009 24/23 A3005 RMK AO2
T02440228





000
SAUS42 KCHS 160958
MTRNBC
METAR KNBC 160956Z AUTO 29003KT 10SM OVC009 24/23 A3005 RMK AO2
SLP177 T02440228





000
SAUS42 KCHS 160938
MTRNBC
SPECI KNBC 160937Z AUTO 00000KT 10SM BKN008 OVC019 25/23 A3006 RMK
AO2 T02500233





000
SAUS42 KCHS 160929
MTRNBC
SPECI KNBC 160928Z AUTO 00000KT 10SM SCT006 BKN019 OVC041 25/23
A3006 RMK AO2 T02500233





000
SAUS42 KCHS 160857
MTRNBC
METAR KNBC 160856Z AUTO 22004KT 10SM BKN020 BKN027 25/23 A3006 RMK
AO2 SLP180 T02500233 53002





000
SAUS42 KCHS 160757
MTRNBC
METAR KNBC 160756Z AUTO 00000KT 10SM CLR 24/23 A3005 RMK AO2 SLP176
T02390228





000
SAUS42 KCHS 160658
MTRNBC
METAR KNBC 160656Z AUTO 00000KT 10SM CLR 24/23 A3006 RMK AO2 SLP178
T02440233





000
SAUS42 KCHS 160557
MTRNBC
METAR KNBC 160556Z AUTO 00000KT 10SM CLR 24/23 A3007 RMK AO2 SLP183
T02390228 10261 20239 58019





000
SAUS42 KCHS 160505
MTRNBC
SPECI KNBC 160504Z AUTO 00000KT 10SM FEW004 24/23 A3008 RMK AO2
T02440228





000
SAUS42 KCHS 160457
MTRNBC
METAR KNBC 160456Z AUTO 00000KT 10SM CLR 24/23 A3009 RMK AO2 SLP189
T02440228 403000228





000
SAUS42 KCHS 160358
MTRNBC
METAR KNBC 160356Z 21003KT 10SM FEW070 24/23 A3012 RMK AO2 SLP199
LAST T02440228





000
SAUS42 KCHS 160257
MTRNBC
METAR KNBC 160256Z 27003KT 10SM FEW070 24/23 A3013 RMK AO2 SLP202
T02440228 58003





000
SAUS42 KCHS 160157
MTRNBC
METAR KNBC 160156Z 28003KT 10SM FEW055 BKN070 25/23 A3013 RMK AO2
SLP204 T02500228





000
SAUS42 KCHS 160057
MTRNBC
METAR KNBC 160056Z 00000KT 10SM FEW017 SCT022 BKN110 25/22 A3014 RMK
AO2 SLP205 T02500222





000
SAUS42 KCHS 160055
MTRNBC
SPECI KNBC 160054Z 00000KT 10SM FEW017 SCT022 BKN110 25/23 A3014 RMK
AO2





000
SAUS42 KCHS 160002
MTRNBC
SPECI KNBC 160000Z 31007KT 10SM FEW006 BKN018 OVC110 26/23 A3011 RMK
AO2 T02560228





000
SAUS42 KCHS 152357
MTRNBC
METAR KNBC 152356Z 30008KT 10SM SCT030 BKN065 BKN100 26/23 A3011 RMK
AO2 SLP196 60000 T02610233 10300 20261 53003





000
SAUS42 KCHS 152257
MTRNBC
METAR KNBC 152256Z 09004KT 10SM FEW025 SCT040 BKN070 27/23 A3009 RMK
AO2 SLP189 T02720233





000
SAUS42 KCHS 152157
MTRNBC
METAR KNBC 152156Z 09008KT 10SM SCT025 SCT032 BKN060 28/23 A3010 RMK
AO2 SLP193 T02830233





000
SAUS42 KCHS 152057
MTRNBC
METAR KNBC 152056Z 00000KT 10SM SCT028 BKN065 BKN120 28/22 A3010 RMK
AO2 RAB03E33 SLP193 P0000 60000 T02830222 56017





000
SAUS42 KCHS 152041
MTRNBC
SPECI KNBC 152039Z 07004KT 10SM SCT028 BKN065 BKN120 30/23 A3010 RMK
AO2 RAB03E33 P0000 T03000228





000
SAUS42 KCHS 151958
MTRNBC
METAR KNBC 151956Z 06003KT 10SM BKN028 BKN065 29/22 A3011 RMK AO2
SLP198 T02890222





000
SAUS42 KCHS 151858
MTRNBC
METAR KNBC 151856Z 00000KT 7SM SCT020 BKN090 BKN200 29/23 A3012 RMK
AO2 SLP200 T02890233





000
SAUS42 KCHS 151824
MTRNBC
SPECI KNBC 151823Z VRB03KT 7SM SCT017 BKN080 BKN190 29/23 A3014 RMK
AO2 T02890233





000
SAUS42 KCHS 151814
MTRNBC
SPECI KNBC 151813Z 36004KT 7SM BKN015 BKN190 29/23 A3014 RMK AO2
T02890233





000
SAUS42 KCHS 151757
MTRNBC
METAR KNBC 151756Z VRB04KT 10SM BKN012 BKN200 28/23 A3015 RMK AO2
SLP210 T02830233 10283 20228 58014





000
SAUS42 KCHS 151730
MTRNBC
SPECI KNBC 151729Z 00000KT 10SM OVC010 27/23 A3016 RMK AO2 T02720228





000
SAUS42 KCHS 151657
MTRNBC
METAR KNBC 151656Z 00000KT 5SM BR OVC007 26/23 A3017 RMK AO2 SLP217
T02610228





000
SAUS42 KCHS 151647
MTRNBC
SPECI KNBC 151646Z 34003KT 4SM BR OVC006 26/23 A3018 RMK AO2
T02610233





000
SAUS42 KCHS 151623
MTRNBC
SPECI KNBC 151622Z 30003KT 4SM BR OVC005 25/23 A3018 RMK AO2
T02500228





000
SAUS42 KCHS 151558
MTRNBC
METAR KNBC 151556Z 24004KT 4SM BR OVC004 25/23 A3018 RMK AO2 SLP222
T02500228





000
SAUS42 KCHS 151531
MTRNBC
SPECI KNBC 151530Z 27005KT 3SM BR OVC004 24/23 A3019 RMK AO2 TWR VIS
4 T02440228





000
SAUS42 KCHS 151457
MTRNBC
METAR KNBC 151456Z 28005KT 2SM BR OVC003 24/22 A3019 RMK AO2 TWR VIS
3 SLP224 T02390222 51007





000
SAUS42 KCHS 151454
MTRNBC
SPECI KNBC 151453Z 26004KT 2SM BR OVC003 24/22 A3019 RMK AO2 TWR VIS
3





000
SAUS42 KCHS 151452
MTRNBC
SPECI KNBC 151451Z 28005KT 3SM OVC002 24/22 A3019 RMK AO2 SFC VIS 7





000
SAUS42 KCHS 151431
MTRNBC
SPECI KNBC 151429Z 00000KT 1SM BR OVC002 23/22 A3020 RMK AO2 SFC VIS
1 1/2 T02330222





000
SAUS42 KCHS 151402
MTRNBC
SPECI KNBC 151401Z 31004KT 1/2SM FG OVC002 23/22 A3019 RMK AO2
T02280217





000
SAUS42 KCHS 151357
MTRNBC
METAR KNBC 151356Z 29004KT 1/4SM BR OVC001 23/22 A3019 RMK AO2 SFC
VIS 1 SLP224 T02280222





000
SAUS42 KCHS 151257
MTRNBC
METAR KNBC 151256Z 25005KT 1/4SM FG OVC001 23/22 A3018 RMK AO2 SFC
VIS 1/2 SLP220 T02280217





000
SAUS42 KCHS 151248
MTRNBC
SPECI KNBC 151247Z 27005KT 1/4SM FG OVC001 23/22 A3018 RMK AO2 SFC
VIS 1/2 T02280222





000
SAUS42 KCHS 151219
MTRNBC
SPECI KNBC 151218Z 25006KT 1/4SM FG OVC002 23/22 A3017 RMK AO2 SFC
VIS 1/2 T02330222





000
SAUS42 KCHS 151157
MTRNBC
METAR KNBC 151156Z 26005KT 1SM BR OVC002 23/22 A3017 RMK AO2 SLP217
70105 T02330222 10239 20228 53003





000
SAUS42 KCHS 151112
MTRNBC
SPECI KNBC 151111Z 26005KT 1SM BR OVC003 23/22 A3017 RMK AO2
T02330222





000
SAUS42 KCHS 151058
MTRNBC
METAR KNBC 151056Z 27003KT 3/4SM BR OVC003 23/22 A3017 RMK AO2
SLP216 FIRST T02330222





000
SAUS42 KCHS 151036
MTRNBC
SPECI KNBC 151035Z 26004KT 3/4SM BR OVC003 23/22 A3016 RMK AO2 FIRST
T02330222





000
SAUS42 KCHS 150957
MTRNBC
METAR KNBC 150956Z AUTO 29004KT 8SM OVC003 23/22 A3016 RMK AO2
SLP213 T02330222





000
SAUS42 KCHS 150953
MTRNBC
SPECI KNBC 150952Z AUTO 30003KT 9SM OVC003 23/22 A3016 RMK AO2





000
SAUS42 KCHS 150912
MTRNBC
SPECI KNBC 150910Z AUTO 28006KT 7SM OVC002 23/22 A3015 RMK AO2
T02330222





000
SAUS42 KCHS 150857
MTRNBC
METAR KNBC 150856Z AUTO 27005KT 6SM BR OVC003 23/22 A3015 RMK AO2
SLP211 T02330222 55005





000
SAUS42 KCHS 150757
MTRNBC
METAR KNBC 150756Z AUTO 26004KT 6SM BR OVC003 24/23 A3015 RMK AO2
SLP210 T02390228





000
SAUS42 KCHS 150658
MTRNBC
METAR KNBC 150656Z AUTO 25006KT 7SM OVC003 24/23 A3015 RMK AO2 TSE11
SLP209 T02390228





000
SAUS42 KCHS 150646
MTRNBC
SPECI KNBC 150645Z AUTO 26006KT 6SM BR OVC003 24/23 A3015 RMK AO2
TSE11 T02390228





000
SAUS42 KCHS 150618
MTRNBC
SPECI KNBC 150617Z AUTO 26005KT 7SM OVC004 24/23 A3016 RMK AO2 TSE11
T02390228





000
SAUS42 KCHS 150557
MTRNBC
METAR KNBC 150556Z AUTO 25004KT 8SM TS OVC004 24/23 A3017 RMK AO2
RAB12E30 TSB41B43 SLP216 P0001 60076 T02390228 10256 20239 55006





000
SAUS42 KCHS 150543
MTRNBC
SPECI KNBC 150541Z AUTO 26005KT 9SM TS BKN004 OVC016 24/23 A3016 RMK
AO2 RAB12E30 TSB41 P0001 T02390228





000
SAUS42 KCHS 150531
MTRNBC
SPECI KNBC 150530Z AUTO 30005KT 8SM BKN005 BKN013 OVC110 24/23 A3017
RMK AO2 RAB12E30 CIG 003V008 P0001 T02390228





000
SAUS42 KCHS 150529
MTRNBC
SPECI KNBC 150527Z AUTO 30005KT 8SM -RA SCT005 BKN015 OVC110 24/23
A3016 RMK AO2 RAB12 P0001 T02390228





000
SAUS42 KCHS 150520
MTRNBC
SPECI KNBC 150518Z AUTO 28006KT 7SM RA FEW005 BKN080 OVC110 24/23
A3017 RMK AO2 RAB12 P0000 T02390228





000
SAUS42 KCHS 150506
MTRNBC
SPECI KNBC 150504Z AUTO 29004KT 10SM FEW007 BKN025 OVC110 24/23
A3016 RMK AO2 T02390228





000
SAUS42 KCHS 150458
MTRNBC
METAR KNBC 150456Z AUTO 30007KT 10SM FEW003 BKN014 OVC080 24/23
A3017 RMK AO2 SLP215 T02390228 403110239





000
SAUS42 KCHS 150449
MTRNBC
SPECI KNBC 150448Z AUTO 26008KT 10SM SCT005 SCT008 OVC014 24/23
A3017 RMK AO2 T02390228





000
SAUS42 KCHS 150441
MTRNBC
SPECI KNBC 150440Z AUTO 21005KT 9SM OVC004 24/23 A3017 RMK AO2 CIG
003V008 T02390228





000
SAUS42 KCHS 150358
MTRNBC
METAR KNBC 150356Z AUTO 26006KT 10SM OVC005 24/23 A3018 RMK AO2
SLP221 T02440228





000
SAUS42 KCHS 150309
MTRNBC
SPECI KNBC 150308Z AUTO 27006KT 10SM BKN005 OVC009 24/23 A3019 RMK
AO2 T02440233





000
SAUS42 KCHS 150257
MTRNBC
METAR KNBC 150256Z AUTO 25005KT 10SM SCT005 BKN008 OVC110 24/23
A3019 RMK AO2 RAB05E15 SLP222 P0000 60075 T02440233 51014





000
SAUS42 KCHS 150157
MTRNBC
METAR KNBC 150156Z AUTO 00000KT 10SM BKN007 BKN021 OVC055 24/23
A3018 RMK AO2 RAE49 TSE27 SLP221 P0010 T02440233





000
SAUS42 KCHS 150134
MTRNBC
SPECI KNBC 150133Z AUTO 29005KT 10SM -RA SCT008 BKN013 OVC090 24/23
A3017 RMK AO2 TSE27 P0009 T02390228





000
SAUS42 KCHS 150058
MTRNBC
METAR KNBC 150056Z AUTO 33009G18KT 4SM +TSRA BR FEW006 BKN030 OVC049
24/22 A3016 RMK AO2 TSB06B26 SLP213 P0065 T02390222





000
SAUS42 KCHS 150049
MTRNBC
SPECI KNBC 150048Z AUTO 34015G18KT 3SM +TSRA BR FEW006 OVC023 24/23
A3016 RMK AO2 TSB06B26 P0057 T02440228





000
SAUS42 KCHS 150042
MTRNBC
SPECI KNBC 150040Z AUTO 31007KT 4SM +TSRA BR SCT006 BKN014 OVC026
24/23 A3015 RMK AO2 TSB06B26 P0044 T02440233





000
SAUS42 KCHS 150035
MTRNBC
SPECI KNBC 150033Z AUTO 30007KT 4SM +TSRA BR SCT006 BKN021 OVC027
24/23 A3016 RMK AO2 TSB06B26 P0033 T02440233





000
SAUS42 KCHS 150013
MTRNBC
SPECI KNBC 150011Z AUTO 22007KT 7SM +TSRA SCT012 BKN017 OVC047 25/24
A3015 RMK AO2 TSB06 P0012 T02500244





000
SAUS42 KCHS 150005
MTRNBC
SPECI KNBC 150004Z AUTO 25008KT 7SM +RA BKN014 BKN024 OVC049 26/24
A3015 RMK AO2 P0005 T02560244





000
SAUS42 KCHS 142358
MTRNBC
METAR KNBC 142356Z AUTO 21007KT 6SM RA BR FEW016 SCT040 OVC049 26/24
A3014 RMK AO2 TSE16 SLP208 P0028 60029 T02560244 10311 20256 52008





000
SAUS42 KCHS 142323
MTRNBC
SPECI KNBC 142322Z AUTO 29005KT 8SM +RA FEW015 OVC035 26/24 A3014
RMK AO2 TSE16 P0006 T02610239





000
SAUS42 KCHS 142314
MTRNBC
SPECI KNBC 142313Z AUTO 34005KT 10SM -TSRA SCT015 OVC038 27/24 A3014
RMK AO2 P0001 T02670244





000
SAUS42 KCHS 142257
MTRNBC
METAR KNBC 142256Z AUTO 34005KT 10SM -TSRA BKN015 BKN120 27/24 A3014
RMK AO2 RAB27E36B54 SLP207 P0001 T02720244





000
SAUS42 KCHS 142206
MTRNBC
SPECI KNBC 142205Z AUTO 35008KT 10SM TS FEW050 FEW120 28/24 A3012
RMK AO2 T02830244





000
SAUS42 KCHS 142157
MTRNBC
METAR KNBC 142156Z 35007KT 10SM VCTS SCT030CB BKN050 BKN110 28/24
A3012 RMK AO2 SLP200 FREQ LTGICCCCG VC CB 10N MOV W LAST T02830239





000
SAUS42 KCHS 142057
MTRNBC
METAR KNBC 142056Z 35007KT 10SM VCTS SCT030CB BKN050 BKN110 28/24
A3012 RMK AO2 SLP200 OCNL LTGICCCCG VC CB 10W MOV SE T02830239 56004





000
SAUS42 KCHS 141957
MTRNBC
METAR KNBC 141956Z 32006KT 10SM BKN030 BKN048 BKN060 30/22 A3012 RMK
AO2 SLP199 FIRST T03000222





000
SAUS42 KCHS 141857
MTRNBC
METAR KNBC 141856Z AUTO 00000KT 10SM CLR 31/22 A3013 RMK AO2 SLP203
T03060222





000
SAUS42 KCHS 141757
MTRNBC
METAR KNBC 141756Z AUTO 30004KT 10SM FEW025 30/22 A3015 RMK AO2
SLP208 T03000222 10311 20244 58013





000
SAUS42 KCHS 141733
MTRNBC
SPECI KNBC 141732Z AUTO 00000KT 10SM SCT024 SCT034 29/22 A3015 RMK
AO2 T02890222





000
SAUS42 KCHS 141716
MTRNBC
SPECI KNBC 141715Z AUTO 27005KT 10SM BKN024 31/23 A3015 RMK AO2
T03060228





000
SAUS42 KCHS 141657
MTRNBC
METAR KNBC 141656Z AUTO VRB03KT 10SM FEW090 31/22 A3016 RMK AO2
SLP212 T03060222





000
SAUS42 KCHS 141631
MTRNBC
SPECI KNBC 141629Z AUTO 30004KT 10SM FEW022 29/23 A3017 RMK AO2
T02940228





000
SAUS42 KCHS 141619
MTRNBC
SPECI KNBC 141617Z AUTO 36004KT 10SM BKN021 BKN095 29/23 A3017 RMK
AO2 T02890228





000
SAUS42 KCHS 141557
MTRNBC
METAR KNBC 141556Z AUTO 35007KT 10SM FEW016 SCT022 BKN090 28/23
A3018 RMK AO2 SLP220 T02830228





000
SAUS42 KCHS 141457
MTRNBC
METAR KNBC 141456Z AUTO 29004KT 10SM SCT013 SCT026 27/23 A3018 RMK
AO2 SLP221 T02670228 51008





000
SAUS42 KCHS 141456
MTRNBC
SPECI KNBC 141454Z AUTO 29004KT 10SM SCT013 SCT026 27/23 A3018 RMK
AO2





000
SAUS42 KCHS 141444
MTRNBC
SPECI KNBC 141443Z AUTO 31004KT 10SM SCT013 BKN027 27/23 A3018 RMK
AO2 T02670228





000
SAUS42 KCHS 141428
MTRNBC
SPECI KNBC 141426Z AUTO VRB04KT 10SM BKN010 BKN026 BKN032 26/23
A3018 RMK AO2 T02610228





000
SAUS42 KCHS 141416
MTRNBC
SPECI KNBC 141414Z AUTO 30005KT 10SM BKN009 BKN014 OVC026 26/23
A3018 RMK AO2 CIG 008V012 T02610228





000
SAUS42 KCHS 141357
MTRNBC
METAR KNBC 141356Z AUTO 27006KT 10SM SCT008 BKN024 OVC065 26/23
A3018 RMK AO2 SLP219 T02610233





000
SAUS42 KCHS 141326
MTRNBC
SPECI KNBC 141324Z AUTO 27004KT 10SM FEW008 BKN023 OVC055 25/23
A3017 RMK AO2 T02500228





000
SAUS42 KCHS 141319
MTRNBC
SPECI KNBC 141317Z AUTO 28004KT 10SM BKN023 OVC055 25/23 A3017 RMK
AO2 T02500233





000
SAUS42 KCHS 141258
MTRNBC
METAR KNBC 141256Z AUTO 30003KT 10SM BKN055 25/23 A3016 RMK AO2
SLP212 T02500228





000
SAUS42 KCHS 141157
MTRNBC
METAR KNBC 141156Z AUTO 00000KT 10SM BKN060 24/23 A3015 RMK AO2
SLP209 60001 70002 T02440228 10250 20239 53016





000
SAUS42 KCHS 141057
MTRNBC
METAR KNBC 141056Z AUTO 00000KT 10SM SCT055 24/23 A3013 RMK AO2
SLP202 T02440228





000
SAUS42 KCHS 140957
MTRNBC
METAR KNBC 140956Z AUTO 23005KT 10SM FEW075 24/22 A3011 RMK AO2
RAE39 TSB0859E14 SLP195 P0000 T02390222





000
SAUS42 KCHS 140921
MTRNBC
SPECI KNBC 140920Z AUTO 24004KT 10SM -RA FEW110 24/23 A3010 RMK AO2
TSB0859E14 P0000 T02390228





000
SAUS42 KCHS 140857
MTRNBC
METAR KNBC 140856Z AUTO 24005KT 10SM -TSRA BKN100 24/23 A3010 RMK
AO2 RAB18 TSB53 SLP193 P0001 60001 T02440228 53006





000
SAUS42 KCHS 140757
MTRNBC
METAR KNBC 140756Z AUTO 22005KT 10SM BKN095 BKN110 25/23 A3009 RMK
AO2 SLP190 T02500228





000
SAUS42 KCHS 140658
MTRNBC
METAR KNBC 140656Z AUTO 16003KT 10SM CLR 25/22 A3009 RMK AO2 SLP189
T02500222





000
SAUS42 KCHS 140557
MTRNBC
METAR KNBC 140556Z AUTO 12003KT 10SM FEW110 25/22 A3008 RMK AO2
SLP187 60001 T02500222 10283 20250 58010





000
SAUS42 KCHS 140457
MTRNBC
METAR KNBC 140456Z AUTO 13007KT 10SM SCT024 26/23 A3011 RMK AO2
TSE07 SLP195 T02610233 403330250





000
SAUS42 KCHS 140454
MTRNBC
SPECI KNBC 140453Z AUTO 13006KT 10SM SCT024 26/23 A3011 RMK AO2
TSE07





000
SAUS42 KCHS 140441
MTRNBC
SPECI KNBC 140440Z AUTO 13010KT 10SM BKN024 27/24 A3011 RMK AO2
TSE07 T02670239





000
SAUS42 KCHS 140414
MTRNBC
SPECI KNBC 140413Z AUTO 11004KT 10SM CLR 27/24 A3011 RMK AO2 TSE07
T02670244





000
SAUS42 KCHS 140357
MTRNBC
METAR KNBC 140356Z AUTO 00000KT 10SM TS FEW100 27/25 A3011 RMK AO2
TSB51 SLP197 T02720250





000
SAUS42 KCHS 140258
MTRNBC
METAR KNBC 140256Z AUTO 00000KT 10SM FEW036 SCT055 27/26 A3010 RMK
AO2 RAE33 SLP192 P0001 60001 T02720256 53014





000
SAUS42 KCHS 140157
MTRNBC
METAR KNBC 140156Z AUTO 00000KT 10SM -RA BKN095 28/25 A3008 RMK AO2
RAB41 SLP187 P0000 T02780250





000
SAUS42 KCHS 140057
MTRNBC
METAR KNBC 140056Z AUTO 34004KT 10SM CLR 28/24 A3007 RMK AO2
TSE09B12E34 SLP182 T02780244





000
SAUS42 KCHS 140041
MTRNBC
SPECI KNBC 140040Z AUTO 33003KT 10SM CLR 28/24 A3007 RMK AO2
TSE09B12E34 T02780244





000
SAUS42 KCHS 132357
MTRNBC
METAR KNBC 132356Z AUTO 00000KT 10SM TS FEW120 28/24 A3006 RMK AO2
TSB54 SLP178 T02830239 10328 20283 53016





000
SAUS42 KCHS 132257
MTRNBC
METAR KNBC 132256Z AUTO 04003KT 10SM CLR 29/24 A3004 RMK AO2 SLP172
T02940239





000
SAUS42 KCHS 132157
MTRNBC
METAR KNBC 132156Z AUTO 04003KT 10SM BKN035 31/23 A3002 RMK AO2
SLP167 T03060233





000
SAUS42 KCHS 132058
MTRNBC
METAR KNBC 132056Z AUTO 04004KT 10SM FEW037 31/23 A3001 RMK AO2
TSB16B17E32 SLP163 T03110233 55015





000
SAUS42 KCHS 132039
MTRNBC
SPECI KNBC 132038Z AUTO 03003KT 10SM FEW036 31/23 A3000 RMK AO2
TSB16B17E32 T03110228





000
SAUS42 KCHS 132023
MTRNBC
SPECI KNBC 132022Z AUTO VRB03KT 10SM TS FEW036 32/23 A3000 RMK AO2
TSB16B17 T03220233





000
SAUS42 KCHS 132000
MTRNBC
METAR KNBC 131956Z AUTO 02003KT 10SM CLR 33/23 A3001 RMK AO2 SLP161
T03280233





000
SAUS42 KCHS 131857
MTRNBC
METAR KNBC 131856Z AUTO 03003KT 10SM FEW034 32/23 A3002 RMK AO2
SLP167 T03170233





000
SAUS42 KCHS 131757
MTRNBC
METAR KNBC 131756Z AUTO 04003KT 10SM FEW100 32/24 A3005 RMK AO2
SLP177 T03220239 10333 20267 58010





    US Dept of Commerce
    National Oceanic and Atmospheric Administration
    National Weather Service
    1325 East West Highway
    Silver Spring, MD 20910
    Page Author: NWS Internet Services Team
Disclaimer
Information Quality
Credits
Glossary
Privacy Policy
Freedom of Information Act (FOIA)
About Us
Career Opportunities